Terminal Aerodrome Forecast
Issued by NWS Brownsville, TX

Home | Current Version | Previous Version | Text Only | Print | Product List | Glossary On
Versions: 1 2 3 4 5 6 7 8 9 10 11 12 13
395
FTUS44 KBRO 202320
TAFBRO
TAF
KBRO 202320Z 2100/2124 11011KT P6SM SKC
     FM210400 13004KT P6SM FEW025
     FM210700 16004KT P6SM FEW025
      TEMPO 2110/2114 4SM BR
     FM211800 15011KT P6SM BKN050
     FM212000 15012G18KT P6SM BKN050
     FM212100 15012KT P6SM SCT250=

USA.gov is the U.S. government's official web portal to all federal, state and local government web resources and services.